Time;durP1;ratioP1;P1;durP2;ratioP2;P2;SDS_P1;SDS_P2;PMS_P1;PMS_P2;Temp;Humidity;BMP_temperature;BMP_pressure;BME280_temperature;BME280_humidity;BME280_pressure;Samples;Min_cycle;Max_cycle;Signal;HPM_P1;HPM_P2
2022/12/01 00:01:01;;;;;;;;;27.75;21.50;;;;;9.62;100.00;102261.16;5094603;27;63991;-74
2022/12/01 00:03:29;;;;;;;;;43.75;31.00;;;;;9.60;100.00;102262.84;5093585;27;45507;-74
2022/12/01 00:06:03;;;;;;;;;36.75;27.50;;;;;9.56;100.00;102253.91;5084609;27;45953;-74
2022/12/01 00:08:29;;;;;;;;;45.00;28.50;;;;;9.55;100.00;102249.50;5060859;27;45831;-74
2022/12/01 00:10:54;;;;;;;;;36.25;24.25;;;;;9.52;100.00;102253.75;5084338;27;47497;-74
2022/12/01 00:13:20;;;;;;;;;34.75;27.75;;;;;9.48;100.00;102238.63;5083188;27;62228;-74
2022/12/01 00:15:45;;;;;;;;;38.00;25.50;;;;;9.43;100.00;102243.75;5083842;27;45486;-74
2022/12/01 00:18:11;;;;;;;;;33.25;24.50;;;;;9.37;100.00;102241.75;5059432;28;61449;-74
2022/12/01 00:20:36;;;;;;;;;25.50;20.50;;;;;9.38;100.00;102258.50;5073147;27;66446;-74
2022/12/01 00:23:01;;;;;;;;;39.00;26.75;;;;;9.33;100.00;102242.50;5073087;28;65158;-74
2022/12/01 00:25:27;;;;;;;;;37.25;27.50;;;;;9.35;100.00;102250.47;5073847;28;45853;-74
2022/12/01 00:27:53;;;;;;;;;29.50;23.50;;;;;9.36;100.00;102254.88;5074090;28;45533;-74
2022/12/01 00:30:19;;;;;;;;;36.75;27.00;;;;;9.34;100.00;102256.59;5073608;28;46676;-74
2022/12/01 00:32:45;;;;;;;;;29.25;24.25;;;;;9.33;100.00;102260.97;5073103;27;45548;-74
2022/12/01 00:35:11;;;;;;;;;35.50;26.50;;;;;9.32;100.00;102259.16;5073631;28;45564;-74
2022/12/01 00:37:37;;;;;;;;;37.00;26.75;;;;;9.32;100.00;102258.25;5073961;28;45584;-73
2022/12/01 00:40:03;;;;;;;;;38.00;30.00;;;;;9.34;100.00;102261.84;5072323;28;46441;-75
2022/12/01 00:42:28;;;;;;;;;44.50;26.50;;;;;9.38;100.00;102258.50;5073586;28;45629;-74
2022/12/01 00:44:54;;;;;;;;;29.75;23.50;;;;;9.40;100.00;102251.53;5073370;28;58028;-74
2022/12/01 00:47:19;;;;;;;;;39.00;28.00;;;;;9.42;100.00;102256.00;5072857;27;47922;-74
2022/12/01 00:49:45;;;;;;;;;43.25;31.50;;;;;9.44;100.00;102253.47;5085397;27;59711;-74
2022/12/01 00:52:13;;;;;;;;;35.50;28.25;;;;;9.43;100.00;102262.22;5054470;27;45506;-74
2022/12/01 00:54:39;;;;;;;;;39.75;26.00;;;;;9.38;100.00;102255.88;5058897;27;45537;-74
2022/12/01 00:57:04;;;;;;;;;33.50;26.50;;;;;9.37;100.00;102261.94;5076332;27;45529;-74
2022/12/01 00:59:30;;;;;;;;;33.00;22.25;;;;;9.32;100.00;102256.53;5058189;27;46774;-74
2022/12/01 01:01:55;;;;;;;;;40.50;28.50;;;;;9.29;100.00;102255.50;5077739;27;45888;-74
2022/12/01 01:04:21;;;;;;;;;33.25;29.00;;;;;9.22;100.00;102243.81;5070910;27;53121;-74
2022/12/01 01:06:46;;;;;;;;;48.00;30.25;;;;;9.22;100.00;102245.56;5072565;27;45454;-74
2022/12/01 01:09:12;;;;;;;;;36.25;25.50;;;;;9.18;100.00;102248.06;5080121;27;45871;-74
2022/12/01 01:11:38;;;;;;;;;29.50;22.00;;;;;9.15;100.00;102244.41;5073617;27;45549;-74
2022/12/01 01:14:05;;;;;;;;;29.25;24.25;;;;;9.14;100.00;102253.16;5072930;27;45508;-74
2022/12/01 01:16:30;;;;;;;;;34.00;22.75;;;;;9.09;100.00;102247.69;5076891;27;45754;-74
2022/12/01 01:18:57;;;;;;;;;31.50;25.25;;;;;9.07;100.00;102245.84;5072640;28;46311;-74
2022/12/01 01:21:23;;;;;;;;;34.00;26.00;;;;;9.05;100.00;102250.16;5072910;28;46297;-74
2022/12/01 01:23:49;;;;;;;;;34.25;22.25;;;;;9.01;100.00;102250.88;5055345;28;45434;-74
2022/12/01 01:26:26;;;;;;;;;32.25;27.00;;;;;9.01;100.00;102248.25;5072848;28;45594;-74
2022/12/01 01:28:52;;;;;;;;;36.75;26.75;;;;;8.98;100.00;102256.03;5054804;28;46813;-74
2022/12/01 01:31:22;;;;;;;;;37.25;28.00;;;;;8.96;100.00;102258.59;5088014;27;46724;-74
2022/12/01 01:33:48;;;;;;;;;36.50;25.75;;;;;8.90;100.00;102258.34;5088154;27;45571;-74
2022/12/01 01:36:14;;;;;;;;;35.00;23.00;;;;;8.86;100.00;102259.94;5054384;27;45493;-74
2022/12/01 01:38:39;;;;;;;;;36.50;28.50;;;;;8.85;100.00;102273.06;5072272;27;46844;-74
2022/12/01 01:41:05;;;;;;;;;36.50;24.25;;;;;8.82;100.00;102276.47;5072894;27;45411;-75
2022/12/01 01:44:04;;;;;;;;;32.25;23.25;;;;;8.84;100.00;102266.91;5079503;27;45484;-74
2022/12/01 01:46:31;;;;;;;;;38.25;26.50;;;;;8.89;100.00;102272.34;5071565;27;45561;-74
2022/12/01 01:49:07;;;;;;;;;40.00;22.75;;;;;8.96;100.00;102276.16;5074160;27;46697;-74
2022/12/01 01:51:42;;;;;;;;;33.75;24.25;;;;;9.03;100.00;102281.72;5058197;27;45510;-74
2022/12/01 01:54:14;;;;;;;;;44.50;26.25;;;;;9.10;100.00;102283.75;5072156;27;45458;-73
2022/12/01 01:56:41;;;;;;;;;33.25;24.25;;;;;9.14;100.00;102280.41;5075644;27;45398;-74
2022/12/01 01:59:06;;;;;;;;;30.75;24.50;;;;;9.21;100.00;102278.00;5072332;27;45946;-74
2022/12/01 02:01:31;;;;;;;;;42.25;28.75;;;;;9.25;100.00;102269.38;5086270;27;63564;-74
2022/12/01 02:03:57;;;;;;;;;43.25;28.25;;;;;9.27;100.00;102272.97;5064026;27;57573;-74
2022/12/01 02:06:23;;;;;;;;;33.00;23.00;;;;;9.32;100.00;102266.16;5095532;27;45961;-74
2022/12/01 02:08:49;;;;;;;;;35.75;23.00;;;;;9.38;100.00;102276.97;5092670;27;45753;-75
2022/12/01 02:11:17;;;;;;;;;31.25;22.00;;;;;9.44;100.00;102280.72;5107365;27;45449;-74
2022/12/01 02:14:01;;;;;;;;;28.00;18.75;;;;;9.47;100.00;102269.38;5095592;27;45476;-74
2022/12/01 02:16:35;;;;;;;;;34.00;22.50;;;;;9.50;100.00;102271.25;5095797;27;45485;-74
2022/12/01 02:19:32;;;;;;;;;39.00;22.75;;;;;9.54;100.00;102270.53;5088277;27;46050;-74
2022/12/01 02:22:19;;;;;;;;;35.00;24.25;;;;;9.55;100.00;102259.16;5118765;27;45956;-74
2022/12/01 02:25:05;;;;;;;;;29.50;21.25;;;;;9.58;100.00;102267.16;5096377;27;45492;-74
2022/12/01 02:27:33;;;;;;;;;28.75;23.00;;;;;9.60;100.00;102271.66;5090978;27;46221;-74
2022/12/01 02:30:08;;;;;;;;;31.75;25.50;;;;;9.62;100.00;102271.72;5093720;27;46575;-74
2022/12/01 02:32:45;;;;;;;;;23.75;22.50;;;;;9.64;100.00;102270.94;5095946;27;45744;-74
2022/12/01 02:35:46;;;;;;;;;30.25;24.00;;;;;9.64;100.00;102276.22;5094648;27;45805;-73
2022/12/01 02:38:30;;;;;;;;;30.50;24.25;;;;;9.68;100.00;102269.31;5075445;27;45878;-74
2022/12/01 02:41:00;;;;;;;;;36.75;22.50;;;;;9.69;100.00;102261.47;5095906;27;46477;-74
2022/12/01 02:43:32;;;;;;;;;37.00;23.00;;;;;9.69;100.00;102268.44;5110500;27;45520;-74
2022/12/01 02:46:09;;;;;;;;;30.50;24.75;;;;;9.68;100.00;102258.75;5095643;27;46008;-74
2022/12/01 02:48:37;;;;;;;;;29.00;22.50;;;;;9.69;100.00;102263.19;5095888;27;45543;-74
2022/12/01 02:51:10;;;;;;;;;39.25;24.75;;;;;9.68;100.00;102258.75;5093945;27;46562;-74
2022/12/01 02:53:36;;;;;;;;;28.75;24.25;;;;;9.71;100.00;102250.97;5080389;27;45435;-74
2022/12/01 02:56:05;;;;;;;;;34.25;27.00;;;;;9.71;100.00;102248.34;5096469;27;45881;-74
2022/12/01 02:58:31;;;;;;;;;36.50;25.25;;;;;9.65;100.00;102249.00;5095831;27;45375;-74
2022/12/01 03:01:31;;;;;;;;;32.75;22.25;;;;;9.59;100.00;102243.50;5096552;27;46852;-74
2022/12/01 03:04:18;;;;;;;;;28.75;23.75;;;;;9.52;100.00;102249.38;5084437;27;45442;-74
2022/12/01 03:06:53;;;;;;;;;33.25;22.50;;;;;9.44;100.00;102246.44;5081218;27;45506;-74
2022/12/01 03:09:21;;;;;;;;;27.25;22.25;;;;;9.38;100.00;102246.22;5073023;27;45944;-74
2022/12/01 03:12:00;;;;;;;;;29.50;22.75;;;;;9.32;100.00;102251.25;5070896;27;45754;-74
2022/12/01 03:14:41;;;;;;;;;27.00;23.00;;;;;9.28;100.00;102245.81;5073848;27;45555;-74
2022/12/01 03:17:13;;;;;;;;;38.50;25.50;;;;;9.22;100.00;102246.47;5057731;28;45454;-74
2022/12/01 03:19:47;;;;;;;;;25.25;22.50;;;;;9.16;100.00;102235.66;5054969;27;45394;-74
2022/12/01 03:22:17;;;;;;;;;31.00;23.25;;;;;9.12;100.00;102245.19;5069746;27;46256;-74
2022/12/01 03:24:45;;;;;;;;;33.25;27.00;;;;;9.06;100.00;102242.31;5067720;27;45533;-74
2022/12/01 03:27:12;;;;;;;;;32.50;26.75;;;;;9.02;100.00;102247.41;5063009;28;45524;-73
2022/12/01 03:29:43;;;;;;;;;34.50;24.25;;;;;9.01;100.00;102248.25;5055310;27;45611;-74
2022/12/01 03:32:19;;;;;;;;;35.00;27.75;;;;;8.98;100.00;102251.66;5061349;27;45623;-74
2022/12/01 03:34:45;;;;;;;;;30.50;26.50;;;;;8.99;100.00;102255.16;5054664;27;45603;-74
2022/12/01 03:37:18;;;;;;;;;32.50;22.00;;;;;8.98;100.00;102262.19;5074386;27;45457;-74
2022/12/01 03:39:47;;;;;;;;;40.00;23.00;;;;;9.00;100.00;102256.97;5074590;27;45785;-74
2022/12/01 03:42:17;;;;;;;;;34.75;24.50;;;;;8.98;100.00;102251.66;5074383;27;46439;-74
2022/12/01 03:44:47;;;;;;;;;36.75;25.75;;;;;8.99;100.00;102250.81;5073179;27;45940;-74
2022/12/01 03:47:19;;;;;;;;;33.25;23.00;;;;;8.98;100.00;102251.66;5056204;28;45516;-74
2022/12/01 03:49:46;;;;;;;;;29.00;27.00;;;;;8.99;100.00;102260.44;5090111;27;45437;-74
2022/12/01 03:52:24;;;;;;;;;27.00;22.50;;;;;8.96;100.00;102250.69;5071279;27;47536;-74
2022/12/01 03:55:25;;;;;;;;;44.25;25.50;;;;;8.97;100.00;102263.03;5057186;27;45853;-74
2022/12/01 03:58:00;;;;;;;;;33.50;24.50;;;;;8.93;100.00;102245.28;5076840;27;45380;-73
2022/12/01 04:00:26;;;;;;;;;36.25;22.50;;;;;8.87;100.00;102238.03;5064696;28;45513;-74
2022/12/01 04:02:58;;;;;;;;;29.75;21.50;;;;;8.85;100.00;102238.84;5056036;28;46428;-74
2022/12/01 04:05:24;;;;;;;;;33.50;22.75;;;;;8.85;100.00;102244.09;5076171;27;45450;-74
2022/12/01 04:07:50;;;;;;;;;18.25;16.50;;;;;8.81;100.00;102232.53;5092194;27;45489;-74
2022/12/01 04:10:15;;;;;;;;;33.25;27.25;;;;;8.81;100.00;102234.28;5075013;27;45446;-74
2022/12/01 04:12:41;;;;;;;;;37.25;24.25;;;;;8.76;100.00;102236.72;5094033;27;46089;-74
2022/12/01 04:15:09;;;;;;;;;36.25;23.00;;;;;8.76;100.00;102238.44;5092842;27;68051;-74
2022/12/01 04:17:35;;;;;;;;;34.25;23.25;;;;;8.73;100.00;102239.19;5093681;27;45497;-74
2022/12/01 04:20:03;;;;;;;;;32.75;18.75;;;;;8.68;100.00;102231.94;5093914;27;45627;-73
2022/12/01 04:22:28;;;;;;;;;34.50;24.00;;;;;8.68;100.00;102242.50;5093744;27;47832;-74
2022/12/01 04:24:53;;;;;;;;;36.50;24.25;;;;;8.64;100.00;102244.13;5073870;27;45653;-74
2022/12/01 04:27:19;;;;;;;;;34.50;23.50;;;;;8.64;100.00;102241.47;5094015;27;45669;-74
2022/12/01 04:29:45;;;;;;;;;31.50;25.25;;;;;8.61;100.00;102236.06;5093719;27;45480;-74
2022/12/01 04:32:10;;;;;;;;;39.75;25.25;;;;;8.60;100.00;102247.44;5093331;27;45978;-74
2022/12/01 04:34:36;;;;;;;;;29.00;23.50;;;;;8.55;100.00;102231.47;5093187;27;45601;-74
2022/12/01 04:37:01;;;;;;;;;27.50;21.75;;;;;8.56;100.00;102235.88;5092198;27;45485;-74
2022/12/01 04:39:26;;;;;;;;;35.00;24.75;;;;;8.55;100.00;102252.50;5074994;27;45557;-74
2022/12/01 04:41:52;;;;;;;;;28.50;21.00;;;;;8.53;100.00;102248.94;5091656;27;60421;-75
2022/12/01 04:44:17;;;;;;;;;28.75;22.50;;;;;8.51;100.00;102247.94;5093907;27;45489;-75
2022/12/01 04:46:42;;;;;;;;;32.25;25.00;;;;;8.49;100.00;102244.38;5093777;27;45483;-73
2022/12/01 04:49:08;;;;;;;;;31.50;25.00;;;;;8.50;100.00;102247.91;5075099;27;45414;-74
2022/12/01 04:51:33;;;;;;;;;28.00;22.50;;;;;8.47;100.00;102248.69;5070311;27;45919;-74
2022/12/01 04:54:00;;;;;;;;;30.25;25.50;;;;;8.46;100.00;102244.22;5090498;27;63727;-73
2022/12/01 04:56:25;;;;;;;;;36.75;23.75;;;;;8.45;100.00;102241.53;5092815;27;45473;-74
2022/12/01 04:58:51;;;;;;;;;37.25;23.25;;;;;8.44;100.00;102245.00;5075512;27;52559;-73
2022/12/01 05:01:17;;;;;;;;;32.25;26.00;;;;;8.41;100.00;102251.03;5091226;27;65139;-74
2022/12/01 05:03:45;;;;;;;;;34.00;25.75;;;;;8.39;100.00;102245.72;5087687;27;45835;-74
2022/12/01 05:06:11;;;;;;;;;31.75;25.25;;;;;8.42;100.00;102249.31;5071520;27;45696;-74
2022/12/01 05:08:36;;;;;;;;;29.00;21.75;;;;;8.38;100.00;102249.19;5088535;27;46455;-74
2022/12/01 05:11:03;;;;;;;;;35.25;25.00;;;;;8.38;100.00;102248.28;5054306;28;46440;-74
2022/12/01 05:13:29;;;;;;;;;30.50;20.75;;;;;8.38;100.00;102246.53;5054991;27;45502;-74
2022/12/01 05:16:12;;;;;;;;;32.25;22.50;;;;;8.37;100.00;102246.50;5064066;27;45554;-74
2022/12/01 05:18:38;;;;;;;;;45.00;29.50;;;;;8.38;100.00;102243.91;5075977;27;45645;-74
2022/12/01 05:21:06;;;;;;;;;35.00;20.75;;;;;8.39;100.00;102248.34;5071450;27;46832;-74
2022/12/01 05:23:33;;;;;;;;;32.25;22.25;;;;;8.41;100.00;102251.03;5078527;27;45360;-74
2022/12/01 05:25:59;;;;;;;;;35.00;22.75;;;;;8.41;100.00;102251.03;5074566;27;45453;-74
2022/12/01 05:28:25;;;;;;;;;34.75;23.00;;;;;8.42;100.00;102246.69;5076838;27;45682;-74
2022/12/01 05:30:52;;;;;;;;;44.00;21.25;;;;;8.43;100.00;102249.38;5058653;28;46586;-73
2022/12/01 05:33:17;;;;;;;;;25.25;22.50;;;;;8.45;100.00;102252.97;5057067;28;45727;-74
2022/12/01 05:35:43;;;;;;;;;33.00;26.00;;;;;8.46;100.00;102257.38;5072993;27;45683;-74
2022/12/01 05:38:08;;;;;;;;;29.25;22.50;;;;;8.47;100.00;102258.28;5072932;27;45612;-74
2022/12/01 05:40:35;;;;;;;;;32.75;25.00;;;;;8.50;100.00;102261.94;5089891;27;47801;-74
2022/12/01 05:43:00;;;;;;;;;33.75;21.50;;;;;8.55;100.00;102254.25;5056616;28;46953;-74
2022/12/01 05:45:26;;;;;;;;;34.25;21.50;;;;;8.60;100.00;102253.59;5073066;27;45462;-74
2022/12/01 05:47:55;;;;;;;;;37.50;30.25;;;;;8.63;100.00;102251.13;5070730;27;45777;-74
2022/12/01 05:50:22;;;;;;;;;32.50;24.50;;;;;8.66;100.00;102259.13;5071113;27;45692;-74
2022/12/01 05:52:47;;;;;;;;;26.25;23.25;;;;;8.65;100.00;102264.34;5071256;27;45493;-75
2022/12/01 05:55:13;;;;;;;;;28.00;19.75;;;;;8.62;100.00;102256.28;5078541;28;45688;-74
2022/12/01 05:57:38;;;;;;;;;33.25;22.50;;;;;8.60;100.00;102264.13;5077857;28;48815;-74
2022/12/01 06:00:04;;;;;;;;;28.00;21.25;;;;;8.60;100.00;102263.25;5078601;28;45834;-75
2022/12/01 06:02:30;;;;;;;;;28.75;24.25;;;;;8.61;100.00;102252.78;5078447;28;45434;-74
2022/12/01 06:04:55;;;;;;;;;26.75;23.00;;;;;8.62;100.00;102257.19;5073915;27;45482;-75
2022/12/01 06:07:22;;;;;;;;;35.25;23.50;;;;;8.65;100.00;102249.44;5078718;27;45438;-75
2022/12/01 06:09:48;;;;;;;;;30.75;24.00;;;;;8.65;100.00;102245.91;5076653;27;46645;-73
2022/12/01 06:12:13;;;;;;;;;25.50;22.25;;;;;8.68;100.00;102246.00;5078432;28;45466;-75
2022/12/01 06:14:38;;;;;;;;;31.25;22.25;;;;;8.73;100.00;102243.56;5078725;28;46091;-75
2022/12/01 06:17:04;;;;;;;;;36.50;22.00;;;;;8.74;100.00;102248.94;5074900;27;55632;-74
2022/12/01 06:19:30;;;;;;;;;30.75;23.25;;;;;8.77;100.00;102250.78;5077687;27;67201;-74
2022/12/01 06:21:55;;;;;;;;;26.75;22.75;;;;;8.77;100.00;102245.50;5080404;27;45580;-75
2022/12/01 06:24:21;;;;;;;;;37.75;24.00;;;;;8.78;100.00;102242.94;5078504;27;45578;-74
2022/12/01 06:26:46;;;;;;;;;37.75;29.75;;;;;8.77;100.00;102241.13;5066003;27;56739;-75
2022/12/01 06:29:11;;;;;;;;;32.00;21.25;;;;;8.78;100.00;102240.28;5081414;27;63884;-74
2022/12/01 06:31:37;;;;;;;;;33.50;26.25;;;;;8.77;100.00;102248.13;5070091;27;55905;-74
2022/12/01 06:34:02;;;;;;;;;30.50;22.00;;;;;8.79;100.00;102254.34;5073608;27;53209;-74
2022/12/01 06:36:27;;;;;;;;;36.50;22.50;;;;;8.80;100.00;102250.91;5075508;27;62634;-74
2022/12/01 06:38:53;;;;;;;;;29.00;21.50;;;;;8.81;100.00;102257.97;5076914;27;65844;-74
2022/12/01 06:41:18;;;;;;;;;28.75;21.50;;;;;8.78;100.00;102250.81;5058776;27;64764;-75
2022/12/01 06:43:43;;;;;;;;;30.25;20.75;;;;;8.77;100.00;102254.31;5077069;27;61092;-74
2022/12/01 06:46:09;;;;;;;;;36.25;23.50;;;;;8.78;100.00;102250.81;5076631;27;45580;-74
2022/12/01 06:48:34;;;;;;;;;33.00;25.50;;;;;8.83;100.00;102261.56;5082932;27;45686;-74
2022/12/01 06:51:00;;;;;;;;;25.75;20.75;;;;;8.80;100.00;102264.97;5070747;27;58156;-74
2022/12/01 06:53:27;;;;;;;;;24.00;22.75;;;;;8.81;100.00;102277.31;5055255;27;45559;-73
2022/12/01 06:55:53;;;;;;;;;38.00;26.50;;;;;8.79;100.00;102257.00;5070760;27;45895;-73
2022/12/01 06:58:18;;;;;;;;;36.75;22.75;;;;;8.78;100.00;102265.72;5075914;27;46106;-73
2022/12/01 07:00:43;;;;;;;;;34.25;22.00;;;;;8.81;100.00;102279.03;5076768;27;64728;-73
2022/12/01 07:05:38;;;;;;;;;27.75;20.00;;;;;8.81;100.00;102279.03;5043355;27;46147;-74
2022/12/01 07:08:05;;;;;;;;;33.75;24.50;;;;;8.79;100.00;102280.69;5025062;28;66963;-74
2022/12/01 07:10:30;;;;;;;;;32.00;22.75;;;;;8.80;100.00;102291.31;5052945;28;46187;-74
2022/12/01 07:12:56;;;;;;;;;29.00;20.50;;;;;8.82;100.00;102288.72;5017371;28;45682;-74
2022/12/01 07:15:23;;;;;;;;;30.25;20.75;;;;;8.81;100.00;102295.75;5036267;28;45956;-74
2022/12/01 07:17:48;;;;;;;;;35.25;27.75;;;;;8.80;100.00;102290.41;5047239;28;46546;-75
2022/12/01 07:20:14;;;;;;;;;39.25;23.50;;;;;8.83;100.00;102293.16;5034438;28;45474;-74
2022/12/01 07:22:41;;;;;;;;;27.50;22.00;;;;;8.84;100.00;102292.31;5052470;28;46975;-74
2022/12/01 07:25:07;;;;;;;;;35.25;26.00;;;;;8.87;100.00;102300.38;5042299;28;45603;-74
2022/12/01 07:27:32;;;;;;;;;26.50;24.25;;;;;8.88;100.00;102307.41;5025685;28;47488;-74
2022/12/01 07:29:58;;;;;;;;;32.25;20.75;;;;;8.86;100.00;102303.84;5044065;28;63055;-74
2022/12/01 07:32:23;;;;;;;;;29.00;23.25;;;;;8.88;100.00;102312.69;5051833;28;57043;-74
2022/12/01 07:34:48;;;;;;;;;27.75;19.50;;;;;8.86;100.00;102306.47;5048120;28;60981;-74
2022/12/01 07:37:14;;;;;;;;;34.00;24.50;;;;;8.84;100.00;102305.50;5050473;28;65889;-74
2022/12/01 07:39:39;;;;;;;;;29.75;21.50;;;;;8.85;100.00;102305.56;5031584;28;62488;-75
2022/12/01 07:42:04;;;;;;;;;34.50;25.50;;;;;8.87;100.00;102319.69;5051733;28;62765;-74
2022/12/01 07:44:30;;;;;;;;;35.75;21.50;;;;;8.86;100.00;102324.91;5056891;28;60327;-75
2022/12/01 07:46:55;;;;;;;;;22.00;17.50;;;;;8.82;100.00;102310.69;5049620;28;45909;-75
2022/12/01 07:49:20;;;;;;;;;30.00;23.00;;;;;8.88;100.00;102329.38;5034268;28;59643;-74
2022/12/01 07:51:46;;;;;;;;;34.00;22.25;;;;;8.92;100.00;102333.97;5048887;28;60268;-75
2022/12/01 07:54:13;;;;;;;;;38.25;22.75;;;;;8.92;100.00;102340.97;5048757;28;49123;-74
2022/12/01 07:56:38;;;;;;;;;31.50;23.25;;;;;8.93;100.00;102340.13;5054821;28;47284;-75
2022/12/01 07:59:03;;;;;;;;;29.25;21.50;;;;;8.96;100.00;102342.91;5046423;28;45487;-75
2022/12/01 08:01:29;;;;;;;;;28.25;22.00;;;;;8.96;100.00;102347.28;5037533;28;59904;-75
2022/12/01 08:03:56;;;;;;;;;33.50;23.25;;;;;8.98;100.00;102349.13;5052649;28;59032;-75
2022/12/01 08:06:22;;;;;;;;;27.25;23.00;;;;;9.01;100.00;102356.28;5081910;27;45857;-75
2022/12/01 08:08:48;;;;;;;;;26.25;22.50;;;;;9.01;100.00;102351.91;5068775;27;45677;-75
2022/12/01 08:11:22;;;;;;;;;24.50;21.50;;;;;9.03;100.00;102355.47;5062291;27;45553;-75
2022/12/01 08:13:49;;;;;;;;;28.25;19.25;;;;;9.05;100.00;102368.72;5062986;27;45585;-75
2022/12/01 08:16:17;;;;;;;;;31.00;22.25;;;;;9.07;100.00;102367.06;5066791;27;45995;-76
2022/12/01 08:18:43;;;;;;;;;37.25;20.75;;;;;9.08;100.00;102363.59;5065382;27;45490;-76
2022/12/01 08:21:11;;;;;;;;;28.00;21.00;;;;;9.09;100.00;102363.63;5091708;27;45600;-76
2022/12/01 08:23:36;;;;;;;;;35.25;21.00;;;;;9.09;100.00;102365.38;5065250;27;45589;-75
2022/12/01 08:26:03;;;;;;;;;26.00;18.00;;;;;9.11;100.00;102363.72;5068659;27;71798;-75
2022/12/01 08:28:29;;;;;;;;;23.50;18.50;;;;;9.16;100.00;102367.41;5066490;27;45446;-77
2022/12/01 08:30:54;;;;;;;;;23.25;20.50;;;;;9.15;100.00;102357.72;5067694;27;45419;-76
2022/12/01 08:33:20;;;;;;;;;29.50;18.75;;;;;9.16;100.00;102359.50;5070807;27;45561;-76
2022/12/01 08:35:45;;;;;;;;;29.25;19.25;;;;;9.16;100.00;102365.72;5063401;27;47617;-76
2022/12/01 08:38:11;;;;;;;;;24.50;18.25;;;;;9.16;100.00;102368.34;5068842;27;45461;-76
2022/12/01 08:40:36;;;;;;;;;23.50;20.25;;;;;9.18;100.00;102368.41;5070042;27;46010;-75
2022/12/01 08:43:01;;;;;;;;;29.00;20.00;;;;;9.18;100.00;102365.75;5086178;27;59789;-75
2022/12/01 08:45:27;;;;;;;;;23.75;19.25;;;;;9.22;100.00;102359.78;5071414;27;50868;-76
2022/12/01 08:47:57;;;;;;;;;31.25;19.25;;;;;9.22;100.00;102362.44;5072310;27;47967;-76
2022/12/01 08:50:23;;;;;;;;;22.25;18.25;;;;;9.28;100.00;102362.66;5071581;27;45508;-76
2022/12/01 08:52:48;;;;;;;;;31.00;23.50;;;;;9.32;100.00;102364.59;5064607;27;45404;-76
2022/12/01 08:55:13;;;;;;;;;23.50;14.75;;;;;9.33;100.00;102358.50;5063785;27;45765;-76
2022/12/01 08:57:39;;;;;;;;;24.25;18.50;;;;;9.36;100.00;102353.31;5065475;27;60957;-76
2022/12/01 09:00:05;;;;;;;;;26.75;21.50;;;;;9.38;100.00;102366.59;5073930;27;45945;-75
2022/12/01 09:02:30;;;;;;;;;20.75;18.75;;;;;9.41;100.00;102370.22;5076375;27;45951;-76
2022/12/01 09:04:55;;;;;;;;;22.00;17.50;;;;;9.41;100.00;102377.22;5069970;27;59707;-76
2022/12/01 09:07:21;;;;;;;;;22.50;16.75;;;;;9.43;100.00;102376.47;5066867;27;61299;-76
2022/12/01 09:09:46;;;;;;;;;32.00;22.75;;;;;9.47;100.00;102368.66;5072955;27;45832;-75
2022/12/01 09:12:12;;;;;;;;;21.75;18.25;;;;;9.50;100.00;102361.78;5078885;27;45737;-77
2022/12/01 09:14:39;;;;;;;;;33.50;18.75;;;;;9.51;100.00;102366.22;5093448;27;46362;-77
2022/12/01 09:17:05;;;;;;;;;23.00;15.50;;;;;9.52;100.00;102360.09;5070530;27;45571;-76
2022/12/01 09:19:30;;;;;;;;;23.00;18.25;;;;;9.51;100.00;102363.59;5071920;27;45527;-75
2022/12/01 09:21:56;;;;;;;;;18.75;17.75;;;;;9.54;100.00;102361.09;5066305;27;45421;-78
2022/12/01 09:24:21;;;;;;;;;24.00;22.25;;;;;9.55;100.00;102367.25;5068138;27;59042;-76
2022/12/01 09:26:47;;;;;;;;;26.25;18.00;;;;;9.57;100.00;102368.19;5069632;27;45519;-76
2022/12/01 09:29:14;;;;;;;;;23.25;15.50;;;;;9.58;100.00;102367.34;5069248;27;58014;-76
2022/12/01 09:31:40;;;;;;;;;28.00;19.75;;;;;9.57;100.00;102362.94;5063958;27;45466;-76
2022/12/01 09:34:07;;;;;;;;;24.50;19.00;;;;;9.58;100.00;102372.63;5055967;27;45822;-76
2022/12/01 09:36:34;;;;;;;;;29.00;19.00;;;;;9.53;100.00;102366.28;5065990;27;45478;-75
2022/12/01 09:39:00;;;;;;;;;31.50;21.75;;;;;9.56;100.00;102372.59;5065866;27;45556;-75
2022/12/01 09:41:32;;;;;;;;;32.50;18.00;;;;;9.54;100.00;102371.63;5066842;27;45580;-76
2022/12/01 09:44:19;;;;;;;;;21.25;16.25;;;;;9.57;100.00;102373.47;5084869;27;46797;-76
2022/12/01 09:47:04;;;;;;;;;22.25;19.25;;;;;9.60;100.00;102371.88;5069372;27;45551;-77
2022/12/01 09:49:41;;;;;;;;;22.50;18.75;;;;;9.64;100.00;102373.81;5064593;27;46004;-76
2022/12/01 09:52:10;;;;;;;;;22.25;17.50;;;;;9.67;100.00;102367.72;5065669;27;45576;-76
2022/12/01 09:54:36;;;;;;;;;23.75;19.50;;;;;9.70;100.00;102366.13;5090462;27;46902;-77
2022/12/01 09:57:01;;;;;;;;;25.00;17.25;;;;;9.72;100.00;102360.91;5066165;27;45663;-76
2022/12/01 09:59:32;;;;;;;;;23.75;16.75;;;;;9.68;100.00;102362.50;5068154;27;46083;-77
2022/12/01 10:02:01;;;;;;;;;21.00;16.75;;;;;9.71;100.00;102367.03;5078959;27;45590;-77
2022/12/01 10:04:40;;;;;;;;;22.25;16.50;;;;;9.70;100.00;102367.88;5064795;27;47748;-75
2022/12/01 10:07:17;;;;;;;;;20.50;17.75;;;;;9.71;100.00;102360.00;5063475;27;45457;-77
2022/12/01 10:09:45;;;;;;;;;23.75;17.25;;;;;9.74;100.00;102367.13;5096533;27;45547;-77
2022/12/01 10:12:15;;;;;;;;;27.25;17.00;;;;;9.76;100.00;102364.56;5071305;27;45423;-76
2022/12/01 10:14:44;;;;;;;;;26.25;18.50;;;;;9.79;100.00;102369.94;5068074;27;45609;-76
2022/12/01 10:17:13;;;;;;;;;27.50;17.75;;;;;9.80;100.00;102367.38;5071142;27;45809;-76
2022/12/01 10:19:38;;;;;;;;;24.75;18.00;;;;;9.84;100.00;102369.28;5063842;27;45484;-77
2022/12/01 10:22:41;;;;;;;;;18.75;12.00;;;;;9.90;100.00;102368.63;5067960;27;45777;-76
2022/12/01 10:25:27;;;;;;;;;20.00;17.25;;;;;9.96;100.00;102363.59;5067977;27;47188;-76
2022/12/01 10:28:11;;;;;;;;;23.50;16.75;;;;;10.01;100.00;102367.28;5061549;27;47256;-76
2022/12/01 10:30:48;;;;;;;;;22.25;18.00;;;;;10.06;100.00;102356.91;5075007;27;45719;-76
2022/12/01 10:33:25;;;;;;;;;22.75;15.00;;;;;10.08;100.00;102358.78;5062404;27;45528;-76
2022/12/01 10:35:51;;;;;;;;;17.75;17.00;;;;;10.10;100.00;102364.09;5062853;27;46714;-77
2022/12/01 10:38:26;;;;;;;;;26.50;19.50;;;;;10.11;100.00;102357.97;5063588;27;45601;-76
2022/12/01 10:40:53;;;;;;;;;25.50;13.00;;;;;10.13;100.00;102357.22;5066183;27;45565;-76
2022/12/01 10:43:28;;;;;;;;;20.25;16.25;;;;;10.10;100.00;102351.78;5073575;27;45423;-77
2022/12/01 10:45:55;;;;;;;;;23.75;17.25;;;;;10.12;100.00;102349.19;5092059;27;48088;-77
2022/12/01 10:48:21;;;;;;;;;20.75;14.75;;;;;10.14;100.00;102345.78;5071307;27;52801;-75
2022/12/01 10:50:54;;;;;;;;;23.50;17.25;;;;;10.17;100.00;102339.72;5064280;27;47360;-75
2022/12/01 10:53:23;;;;;;;;;19.50;17.50;;;;;10.20;100.00;102342.47;5064543;27;45973;-74
2022/12/01 10:55:57;;;;;;;;;33.75;24.00;;;;;10.23;100.00;102338.25;5063047;27;46864;-75
2022/12/01 10:58:22;;;;;;;;;23.00;17.25;;;;;10.23;100.00;102338.25;5072442;27;45947;-74
2022/12/01 11:01:01;;;;;;;;;24.75;17.75;;;;;10.28;100.00;102334.88;5069627;27;54556;-75
2022/12/01 11:03:31;;;;;;;;;19.50;16.50;;;;;10.32;100.00;102335.03;5071705;27;45875;-75
2022/12/01 11:05:59;;;;;;;;;23.75;20.00;;;;;10.35;100.00;102331.63;5097731;27;46035;-72
2022/12/01 11:08:36;;;;;;;;;23.25;18.25;;;;;10.33;100.00;102322.72;5069778;27;45524;-73
2022/12/01 11:11:02;;;;;;;;;20.25;17.75;;;;;10.31;100.00;102325.31;5066893;27;45643;-72
2022/12/01 11:13:34;;;;;;;;;22.25;19.00;;;;;10.35;100.00;102331.63;5063270;27;46537;-73
2022/12/01 11:16:03;;;;;;;;;27.50;21.00;;;;;10.36;100.00;102336.06;5069249;27;45686;-74
2022/12/01 11:18:31;;;;;;;;;22.00;18.00;;;;;10.38;100.00;102339.63;5076934;27;45580;-74